Time;durP1;ratioP1;P1;durP2;ratioP2;P2;SDS_P1;SDS_P2;PMS_P1;PMS_P2;Temp;Humidity;BMP_temperature;BMP_pressure;BME280_temperature;BME280_humidity;BME280_pressure;Samples;Min_cycle;Max_cycle;Signal;HPM_P1;HPM_P2
2022/05/18 00:00:59;;;;;;;9.77;5.22;;;;;;;15.95;76.27;101771.13;5024789;28;20043;-70
2022/05/18 00:03:34;;;;;;;12.02;5.93;;;;;;;15.90;76.17;101766.91;5023619;28;20592;-70
2022/05/18 00:06:04;;;;;;;12.15;5.78;;;;;;;15.87;76.04;101777.66;5016075;28;20520;-69
2022/05/18 00:08:35;;;;;;;8.63;5.75;;;;;;;15.81;76.31;101768.97;5014865;28;20066;-68
2022/05/18 00:11:15;;;;;;;8.38;5.15;;;;;;;15.79;76.04;101777.91;5018507;28;20046;-68
2022/05/18 00:13:46;;;;;;;8.25;5.30;;;;;;;15.77;76.23;101772.66;5012022;28;20066;-68
2022/05/18 00:16:16;;;;;;;7.05;5.30;;;;;;;15.74;76.01;101780.72;5023666;28;20052;-67
2022/05/18 00:18:45;;;;;;;7.65;4.95;;;;;;;15.73;75.85;101781.66;5017452;28;20046;-67
2022/05/18 00:21:13;;;;;;;8.63;5.32;;;;;;;15.71;75.78;101780.88;5013445;28;20034;-67
2022/05/18 00:23:41;;;;;;;10.43;5.78;;;;;;;15.69;75.93;101793.34;5022014;28;20054;-65
2022/05/18 00:26:09;;;;;;;8.00;5.22;;;;;;;15.67;76.19;101781.88;5026994;28;20589;-65
2022/05/18 00:28:37;;;;;;;7.18;5.20;;;;;;;15.67;76.23;101789.84;5022265;28;20038;-66
2022/05/18 00:31:04;;;;;;;9.82;5.18;;;;;;;15.64;76.18;101789.97;5014273;28;20077;-65
2022/05/18 00:33:31;;;;;;;7.80;4.85;;;;;;;15.61;76.17;101796.25;5013626;28;20037;-66
2022/05/18 00:35:59;;;;;;;7.75;5.00;;;;;;;15.57;76.15;101791.97;5019538;28;20121;-66
2022/05/18 00:38:27;;;;;;;7.30;4.70;;;;;;;15.52;76.06;101793.94;5014217;28;20042;-64
2022/05/18 00:40:55;;;;;;;8.85;5.43;;;;;;;15.47;76.18;101788.78;5016351;28;20120;-64
2022/05/18 00:43:28;;;;;;;8.98;5.30;;;;;;;15.43;76.40;101794.28;5022301;28;20046;-66
2022/05/18 00:46:04;;;;;;;8.63;5.32;;;;;;;15.40;76.35;101789.06;5017215;28;20409;-66
2022/05/18 00:48:31;;;;;;;6.78;4.80;;;;;;;15.37;76.35;101800.66;5029151;28;20046;-67
2022/05/18 00:51:04;;;;;;;9.18;5.38;;;;;;;15.35;76.47;101791.88;5015158;28;20479;-66
2022/05/18 00:54:00;;;;;;;8.02;5.65;;;;;;;15.33;76.54;101791.06;5012633;28;20046;-66
2022/05/18 00:56:55;;;;;;;8.82;5.30;;;;;;;15.31;76.67;101792.94;5023737;28;20527;-65
2022/05/18 00:59:29;;;;;;;9.10;4.85;;;;;;;15.28;76.51;101790.38;5025271;28;20050;-65
2022/05/18 01:02:01;;;;;;;10.90;5.40;;;;;;;15.26;76.62;101785.09;5014116;28;20066;-65
2022/05/18 01:04:50;;;;;;;7.78;5.20;;;;;;;15.27;76.57;101788.63;5022470;28;20496;-64
2022/05/18 01:07:37;;;;;;;8.60;5.10;;;;;;;15.27;76.63;101786.81;5026746;28;20058;-65
2022/05/18 01:10:12;;;;;;;8.02;5.40;;;;;;;15.27;76.47;101791.28;5018428;28;20571;-64
2022/05/18 01:12:39;;;;;;;6.90;4.88;;;;;;;15.27;76.57;101791.28;5015372;28;20122;-65
2022/05/18 01:15:12;;;;;;;7.95;5.15;;;;;;;15.27;76.31;101791.28;5013272;28;20141;-64
2022/05/18 01:17:45;;;;;;;8.35;5.32;;;;;;;15.25;76.33;101794.00;5014742;28;20797;-64
2022/05/18 01:20:19;;;;;;;8.80;5.00;;;;;;;15.25;76.34;101790.47;5020471;28;20492;-64
2022/05/18 01:23:28;;;;;;;10.73;4.85;;;;;;;15.21;76.28;101790.56;5018817;28;20054;-64
2022/05/18 01:26:10;;;;;;;6.72;4.78;;;;;;;15.15;76.50;101790.78;5014358;28;20488;-64
2022/05/18 01:28:52;;;;;;;9.50;5.00;;;;;;;15.11;76.60;101791.81;5016421;28;20487;-63
2022/05/18 01:32:03;;;;;;;8.50;4.90;;;;;;;15.08;76.72;101799.91;5019483;28;20037;-63
2022/05/18 01:34:35;;;;;;;8.13;4.78;;;;;;;15.03;76.92;101800.06;5011313;28;20042;-65
2022/05/18 01:37:03;;;;;;;8.10;4.50;;;;;;;15.01;77.03;101795.69;5019611;28;20055;-64
2022/05/18 01:39:59;;;;;;;8.30;4.55;;;;;;;14.96;76.95;101795.84;5017423;28;20042;-64
2022/05/18 01:42:39;;;;;;;8.23;4.70;;;;;;;14.94;77.12;101791.50;5015565;28;20479;-66
2022/05/18 01:45:07;;;;;;;6.47;4.25;;;;;;;14.89;77.11;101795.22;5016547;28;20042;-67
2022/05/18 01:47:38;;;;;;;7.50;4.50;;;;;;;14.88;77.19;101795.25;5016753;28;20053;-67
2022/05/18 01:50:11;;;;;;;6.68;4.28;;;;;;;14.81;77.15;101794.56;5014374;28;20038;-67
2022/05/18 01:52:39;;;;;;;8.55;4.22;;;;;;;14.75;77.26;101795.63;5020577;28;20051;-67
2022/05/18 01:55:07;;;;;;;6.85;4.30;;;;;;;14.73;77.42;101799.28;5022537;28;20042;-68
2022/05/18 01:57:36;;;;;;;7.65;4.57;;;;;;;14.69;77.38;101800.31;5011700;28;20042;-68
2022/05/18 02:00:06;;;;;;;9.00;4.60;;;;;;;14.65;77.72;101799.47;5013678;28;20527;-67
2022/05/18 02:02:39;;;;;;;8.70;4.40;;;;;;;14.63;77.55;101804.00;5014718;28;20576;-69
2022/05/18 02:05:07;;;;;;;8.43;4.97;;;;;;;14.60;77.93;101802.28;5020710;28;20043;-70
2022/05/18 02:07:36;;;;;;;8.48;4.80;;;;;;;14.63;77.92;101800.44;5008607;28;20042;-68
2022/05/18 02:10:04;;;;;;;8.20;4.93;;;;;;;14.63;78.05;101805.75;5019670;28;20034;-69
2022/05/18 02:12:33;;;;;;;7.20;4.47;;;;;;;14.63;78.06;101805.75;5022270;28;20048;-68
2022/05/18 02:15:00;;;;;;;8.15;4.57;;;;;;;14.60;78.01;101814.69;5016622;28;20042;-68
2022/05/18 02:17:29;;;;;;;6.03;4.85;;;;;;;14.59;77.83;101807.66;5019493;28;20041;-67
2022/05/18 02:19:58;;;;;;;7.50;4.68;;;;;;;14.59;77.79;101812.94;5024153;28;20061;-64
2022/05/18 02:22:25;;;;;;;9.23;4.68;;;;;;;14.58;77.81;101801.47;5015045;28;20062;-65
2022/05/18 02:24:52;;;;;;;7.00;4.47;;;;;;;14.58;77.89;101809.44;5012516;28;21778;-64
2022/05/18 02:27:20;;;;;;;7.00;5.10;;;;;;;14.58;77.73;101798.84;5023507;28;20117;-67
2022/05/18 02:29:47;;;;;;;5.95;4.53;;;;;;;14.60;78.05;101801.44;5022360;28;20085;-66
2022/05/18 02:32:14;;;;;;;7.38;4.80;;;;;;;14.60;77.83;101794.31;5026126;28;21469;-66
2022/05/18 02:34:43;;;;;;;8.05;4.80;;;;;;;14.62;77.79;101796.06;5029916;28;20038;-68
2022/05/18 02:37:11;;;;;;;9.02;4.75;;;;;;;14.62;77.81;101794.28;5016128;28;20062;-67
2022/05/18 02:39:39;;;;;;;6.75;4.30;;;;;;;14.62;77.82;101796.94;5018355;28;20113;-68
2022/05/18 02:42:06;;;;;;;5.43;4.78;;;;;;;14.65;77.80;101795.97;5018766;28;20505;-67
2022/05/18 02:44:33;;;;;;;6.80;4.75;;;;;;;14.67;77.74;101786.22;5020027;28;20551;-66
2022/05/18 02:47:03;;;;;;;6.15;4.75;;;;;;;14.69;77.78;101787.88;5016363;28;20089;-67
2022/05/18 02:49:31;;;;;;;6.57;5.07;;;;;;;14.69;77.73;101781.72;5011921;28;20145;-67
2022/05/18 02:51:59;;;;;;;6.78;4.90;;;;;;;14.71;77.97;101793.13;5017986;28;20163;-67
2022/05/18 02:57:12;;;;;;;6.15;4.72;;;;;;;14.73;77.89;101786.88;5012584;28;20046;-69
2022/05/18 02:59:40;;;;;;;8.80;5.20;;;;;;;14.75;78.08;101786.81;5018261;28;20045;-69
2022/05/18 03:02:07;;;;;;;8.85;4.97;;;;;;;14.75;77.86;101794.78;5014277;28;20581;-69
2022/05/18 03:04:34;;;;;;;8.00;4.90;;;;;;;14.75;77.88;101795.63;5024881;28;20596;-69
2022/05/18 03:07:02;;;;;;;6.93;4.88;;;;;;;14.75;77.86;101800.09;5011927;28;20042;-69
2022/05/18 03:09:30;;;;;;;8.48;4.82;;;;;;;14.75;77.83;101795.63;5025029;28;20042;-69
2022/05/18 03:11:57;;;;;;;8.68;4.93;;;;;;;14.75;77.83;101798.28;5019587;28;20038;-69
2022/05/18 03:14:25;;;;;;;7.75;5.10;;;;;;;14.77;77.98;101800.03;5019854;28;20050;-68
2022/05/18 03:16:52;;;;;;;6.80;4.97;;;;;;;14.75;77.88;101800.94;5016110;28;20050;-70
2022/05/18 03:19:23;;;;;;;7.85;5.05;;;;;;;14.76;77.94;101807.13;5016568;28;20046;-69
2022/05/18 03:24:36;;;;;;;7.78;4.80;;;;;;;14.75;78.09;101810.72;5024760;28;20042;-67
2022/05/18 03:27:05;;;;;;;8.68;4.60;;;;;;;14.75;78.13;101811.56;5016346;28;20050;-68
2022/05/18 03:29:34;;;;;;;9.27;4.93;;;;;;;14.77;78.02;101810.66;5012139;28;20046;-68
2022/05/18 03:32:01;;;;;;;6.22;4.70;;;;;;;14.78;78.17;101815.94;5023918;28;20053;-69
2022/05/18 03:34:28;;;;;;;5.55;4.55;;;;;;;14.79;78.14;101814.13;5019480;28;20112;-69
2022/05/18 03:36:55;;;;;;;6.63;4.80;;;;;;;14.78;78.11;101818.59;5013739;28;20037;-69
2022/05/18 03:39:26;;;;;;;7.80;4.63;;;;;;;14.79;78.30;101815.00;5013784;28;20050;-69
2022/05/18 03:41:53;;;;;;;5.95;4.68;;;;;;;14.80;78.52;101822.06;5013118;28;20097;-67
2022/05/18 03:44:20;;;;;;;6.53;4.07;;;;;;;14.85;78.50;101819.25;5014562;28;20042;-67
2022/05/18 03:46:48;;;;;;;6.85;4.68;;;;;;;14.85;78.46;101820.13;5011028;28;20423;-67
2022/05/18 03:49:17;;;;;;;8.13;4.75;;;;;;;14.87;78.41;101820.94;5011000;28;20118;-68
2022/05/18 03:51:44;;;;;;;8.13;4.70;;;;;;;14.91;78.27;101829.66;5014425;28;20082;-68
2022/05/18 03:54:11;;;;;;;7.32;4.45;;;;;;;14.91;78.00;101835.81;5012222;28;20539;-69
2022/05/18 03:56:38;;;;;;;8.68;4.70;;;;;;;14.94;77.98;101839.31;5015893;28;20053;-68
2022/05/18 03:59:05;;;;;;;9.65;4.88;;;;;;;14.97;78.04;101839.22;5018845;28;20048;-67
2022/05/18 04:01:35;;;;;;;10.05;4.45;;;;;;;15.01;78.04;101835.53;5015755;28;20053;-67
2022/05/18 04:04:02;;;;;;;9.27;5.07;;;;;;;15.07;77.88;101846.81;5018314;28;20034;-68
2022/05/18 04:06:30;;;;;;;6.53;4.38;;;;;;;15.10;77.76;101847.63;5020542;28;20081;-68
2022/05/18 04:08:57;;;;;;;6.95;4.40;;;;;;;15.11;77.66;101860.00;5024798;28;20125;-70
2022/05/18 04:11:24;;;;;;;7.97;4.93;;;;;;;15.10;77.70;101853.84;5012434;28;20453;-70
2022/05/18 04:14:11;;;;;;;7.13;4.35;;;;;;;15.13;77.60;101856.38;5017904;28;20125;-70
2022/05/18 04:16:57;;;;;;;8.10;4.50;;;;;;;15.18;77.34;101862.41;5013023;28;20125;-69
2022/05/18 04:19:44;;;;;;;6.45;4.53;;;;;;;15.20;77.31;101862.34;5016325;28;20125;-71
2022/05/18 04:22:32;;;;;;;5.85;4.68;;;;;;;15.26;77.35;101858.63;5015103;28;20058;-70
2022/05/18 04:25:25;;;;;;;8.50;4.65;;;;;;;15.32;77.13;101859.28;5023196;28;20085;-70
2022/05/18 04:27:53;;;;;;;7.77;4.80;;;;;;;15.39;77.14;101865.25;5017959;28;20120;-71
2022/05/18 04:30:24;;;;;;;9.07;4.57;;;;;;;15.45;77.05;101870.34;5025112;28;20263;-68
2022/05/18 04:32:53;;;;;;;11.15;4.82;;;;;;;15.57;76.91;101866.38;5022496;28;20049;-69
2022/05/18 04:35:24;;;;;;;6.82;4.63;;;;;;;15.70;76.86;101872.16;5021926;28;20500;-70
2022/05/18 04:37:53;;;;;;;5.68;4.40;;;;;;;15.87;76.60;101876.03;5025971;28;20050;-69
2022/05/18 04:40:21;;;;;;;8.40;4.32;;;;;;;16.01;76.28;101870.19;5028031;28;20076;-69
2022/05/18 04:42:48;;;;;;;5.95;4.28;;;;;;;16.14;76.10;101871.50;5021003;28;20038;-69
2022/05/18 04:45:21;;;;;;;8.10;4.93;;;;;;;16.27;75.86;101872.78;5022976;28;20044;-70
2022/05/18 04:47:50;;;;;;;5.55;4.18;;;;;;;16.50;75.53;101870.13;5018640;28;20125;-69
2022/05/18 04:50:20;;;;;;;5.60;4.00;;;;;;;16.58;75.24;101876.88;5018821;28;20046;-69
2022/05/18 04:52:48;;;;;;;9.75;4.38;;;;;;;16.55;75.07;101873.47;5014896;28;20065;-69
2022/05/18 04:55:15;;;;;;;7.38;4.22;;;;;;;16.57;74.86;101871.63;5019369;28;20066;-69
2022/05/18 04:57:43;;;;;;;8.73;4.65;;;;;;;16.56;74.93;101885.84;5017653;28;20053;-70
2022/05/18 05:00:13;;;;;;;10.95;4.47;;;;;;;16.56;74.84;101876.09;5014890;28;20051;-69
2022/05/18 05:02:41;;;;;;;7.97;4.13;;;;;;;16.60;74.61;101879.50;5016451;28;20040;-69
2022/05/18 05:05:13;;;;;;;16.95;5.00;;;;;;;16.73;74.32;101880.75;5028713;28;20042;-68
2022/05/18 05:07:40;;;;;;;9.07;4.10;;;;;;;17.04;73.70;101884.84;5021985;28;20043;-70
2022/05/18 05:10:08;;;;;;;5.20;3.67;;;;;;;17.60;72.93;101879.00;5025020;28;20050;-70
2022/05/18 05:12:41;;;;;;;7.18;4.07;;;;;;;17.73;72.39;101882.84;5018219;28;20041;-70
2022/05/18 05:15:10;;;;;;;8.25;4.07;;;;;;;17.91;71.68;101888.31;5026111;28;20048;-68
2022/05/18 05:17:37;;;;;;;6.97;4.00;;;;;;;18.27;70.78;101888.47;5029454;28;20085;-68
2022/05/18 05:20:06;;;;;;;7.13;4.32;;;;;;;18.50;69.67;101893.69;5015402;28;20169;-69
2022/05/18 05:22:33;;;;;;;10.38;4.10;;;;;;;18.93;69.38;101895.19;5023117;28;20051;-69
2022/05/18 05:25:00;;;;;;;6.07;4.07;;;;;;;19.57;66.85;101892.00;5014316;28;20065;-69
2022/05/18 05:27:28;;;;;;;11.73;3.92;;;;;;;19.80;66.92;101881.91;5027841;28;20045;-69
2022/05/18 05:29:55;;;;;;;7.00;3.90;;;;;;;20.88;64.75;101891.25;5019871;28;20781;-69
2022/05/18 05:32:25;;;;;;;7.38;3.65;;;;;;;22.16;61.08;101899.75;5021701;28;20046;-68
2022/05/18 05:34:53;;;;;;;6.13;3.60;;;;;;;23.28;55.41;101884.50;5016653;28;20090;-70
2022/05/18 05:37:20;;;;;;;6.47;3.25;;;;;;;24.18;54.63;101889.94;5022315;28;20054;-71
2022/05/18 05:39:48;;;;;;;5.03;3.15;;;;;;;24.95;51.32;101888.00;5014579;28;20105;-69
2022/05/18 05:42:15;;;;;;;4.65;2.97;;;;;;;25.59;49.38;101889.47;5024805;28;20045;-70
2022/05/18 05:44:43;;;;;;;7.03;3.30;;;;;;;26.10;47.99;101882.78;5018549;28;20093;-69
2022/05/18 05:47:11;;;;;;;6.55;3.28;;;;;;;26.58;46.89;101883.47;5020384;28;20038;-69
2022/05/18 05:49:39;;;;;;;9.32;3.20;;;;;;;27.04;45.04;101879.66;5015191;28;20038;-68
2022/05/18 05:52:07;;;;;;;5.85;2.90;;;;;;;27.40;45.21;101880.19;5014231;28;20046;-69
2022/05/18 05:54:35;;;;;;;7.07;3.03;;;;;;;27.80;43.15;101877.75;5019638;28;20050;-68
2022/05/18 05:57:04;;;;;;;8.80;3.50;;;;;;;28.00;42.62;101881.44;5018791;28;20042;-70
2022/05/18 05:59:35;;;;;;;13.40;2.88;;;;;;;28.14;41.96;101875.66;5020755;28;20053;-69
2022/05/18 06:02:07;;;;;;;9.80;3.03;;;;;;;28.05;41.68;101871.00;5021010;28;20842;-70
2022/05/18 06:04:36;;;;;;;10.38;3.22;;;;;;;27.47;42.38;101880.56;5015490;28;20042;-70
2022/05/18 06:07:04;;;;;;;12.73;3.25;;;;;;;26.43;43.12;101889.16;5032517;28;20558;-69
2022/05/18 06:09:33;;;;;;;11.02;3.05;;;;;;;25.50;44.99;101893.75;5025157;28;20085;-70
2022/05/18 06:12:00;;;;;;;6.68;3.20;;;;;;;24.80;46.31;101887.31;5016525;28;20143;-71
2022/05/18 06:14:29;;;;;;;9.57;3.70;;;;;;;24.26;47.59;101897.47;5018386;28;20042;-70
2022/05/18 06:16:58;;;;;;;8.70;3.33;;;;;;;23.87;48.59;101900.16;5021700;28;20560;-70
2022/05/18 06:19:26;;;;;;;10.40;3.70;;;;;;;23.61;48.99;101893.91;5018314;28;20053;-70
2022/05/18 06:21:53;;;;;;;6.93;3.90;;;;;;;23.48;50.02;101895.75;5020127;28;20045;-70
2022/05/18 06:24:20;;;;;;;5.40;3.47;;;;;;;23.48;50.24;101895.75;5023686;28;20053;-70
2022/05/18 06:26:47;;;;;;;11.93;4.47;;;;;;;23.56;50.57;101899.59;5023521;28;20133;-71
2022/05/18 06:29:14;;;;;;;6.40;3.65;;;;;;;23.69;50.36;101894.25;5019777;28;20096;-69
2022/05/18 06:31:43;;;;;;;11.40;3.67;;;;;;;23.83;49.71;101901.38;5018944;28;20584;-70
2022/05/18 06:34:10;;;;;;;6.72;3.83;;;;;;;23.95;49.75;101896.97;5020892;28;20061;-70
2022/05/18 06:36:37;;;;;;;6.07;3.97;;;;;;;24.06;50.12;101898.03;5020321;28;20056;-70
2022/05/18 06:39:05;;;;;;;38.33;5.57;;;;;;;24.24;50.26;101904.78;5019647;28;20128;-69
2022/05/18 06:41:36;;;;;;;8.65;4.13;;;;;;;24.40;49.83;101898.31;5011345;28;20046;-69
2022/05/18 06:44:05;;;;;;;10.82;4.15;;;;;;;24.46;49.70;101905.94;5012138;28;20097;-70
2022/05/18 06:46:36;;;;;;;5.32;4.05;;;;;;;24.42;48.97;101908.00;5021531;28;20467;-70
2022/05/18 06:49:11;;;;;;;7.05;4.20;;;;;;;24.38;49.71;101909.19;5014763;28;20151;-70
2022/05/18 06:51:42;;;;;;;11.93;4.40;;;;;;;24.33;50.06;101914.91;5021080;28;20065;-70
2022/05/18 06:54:11;;;;;;;13.10;4.45;;;;;;;24.24;49.91;101920.13;5024468;28;20132;-69
2022/05/18 06:56:42;;;;;;;13.10;4.25;;;;;;;24.21;50.54;101931.09;5015125;28;20046;-69
2022/05/18 06:59:13;;;;;;;18.33;4.85;;;;;;;24.21;49.71;101929.28;5012251;28;20046;-70
2022/05/18 07:01:42;;;;;;;7.72;3.70;;;;;;;24.23;49.74;101931.84;5026878;28;20645;-70
2022/05/18 07:04:10;;;;;;;11.35;3.63;;;;;;;24.27;49.68;101933.34;5023480;28;20096;-70
2022/05/18 07:06:42;;;;;;;7.32;3.97;;;;;;;24.40;49.68;101930.66;5025831;28;20077;-70
2022/05/18 07:09:18;;;;;;;9.55;4.18;;;;;;;24.74;49.40;101926.38;5026045;28;20825;-70
2022/05/18 07:11:49;;;;;;;8.45;3.83;;;;;;;25.05;47.53;101929.50;5031058;28;20053;-70
2022/05/18 07:14:19;;;;;;;8.57;3.63;;;;;;;25.38;47.68;101925.22;5016149;28;20074;-70
2022/05/18 07:16:47;;;;;;;9.77;4.55;;;;;;;25.65;46.48;101934.88;5022344;28;20038;-70
2022/05/18 07:19:17;;;;;;;8.57;4.47;;;;;;;25.90;46.04;101935.66;5020648;28;20868;-69
2022/05/18 07:21:47;;;;;;;10.57;4.18;;;;;;;26.16;45.66;101938.19;5028442;28;20050;-70
2022/05/18 07:24:14;;;;;;;10.27;4.63;;;;;;;26.22;45.94;101937.69;5021320;28;20178;-70
2022/05/18 07:26:43;;;;;;;10.10;4.60;;;;;;;26.25;44.16;101942.00;5018247;28;20063;-70
2022/05/18 07:29:11;;;;;;;8.57;4.88;;;;;;;26.27;44.17;101954.41;5015496;28;20038;-69
2022/05/18 07:34:27;;;;;;;15.20;4.90;;;;;;;26.19;44.87;101949.59;5012784;28;20478;-68
2022/05/18 07:36:56;;;;;;;12.35;4.70;;;;;;;26.20;45.68;101951.31;5018992;28;20120;-70
2022/05/18 07:39:28;;;;;;;11.80;5.03;;;;;;;26.23;44.94;101946.66;5030102;28;20112;-71
2022/05/18 07:41:57;;;;;;;14.88;5.18;;;;;;;26.14;45.26;101949.13;5024875;28;20535;-71
2022/05/18 07:44:25;;;;;;;12.80;5.40;;;;;;;26.06;44.82;101951.53;5024556;28;20038;-69
2022/05/18 07:46:54;;;;;;;9.52;5.45;;;;;;;26.01;45.42;101959.13;5015960;28;20067;-69
2022/05/18 07:49:21;;;;;;;10.13;5.82;;;;;;;25.93;45.22;101956.19;5020263;28;20068;-70
2022/05/18 07:51:48;;;;;;;17.27;5.88;;;;;;;25.85;45.90;101968.44;5021597;28;20101;-69
2022/05/18 07:54:16;;;;;;;10.68;5.40;;;;;;;25.78;45.25;101960.94;5030257;28;20042;-69
2022/05/18 07:56:43;;;;;;;8.68;5.50;;;;;;;25.67;45.16;101969.88;5023622;28;20098;-70
2022/05/18 07:59:11;;;;;;;9.90;5.80;;;;;;;25.56;45.67;101973.41;5026454;28;20042;-70
2022/05/18 08:01:39;;;;;;;17.42;6.15;;;;;;;25.48;46.24;101970.44;5030699;28;20125;-70
2022/05/18 08:04:07;;;;;;;8.85;5.22;;;;;;;25.42;46.52;101974.47;5020875;28;20523;-70
2022/05/18 08:06:34;;;;;;;11.13;5.40;;;;;;;25.36;46.52;101977.56;5023677;28;20599;-70
2022/05/18 08:09:03;;;;;;;7.13;4.85;;;;;;;25.21;45.72;101980.47;5014864;28;20173;-70
2022/05/18 08:17:04;;;;;;;23.75;5.00;;;;;;;25.06;46.48;101960.88;5025592;28;20109;-70
2022/05/18 08:19:31;;;;;;;19.83;5.20;;;;;;;25.32;45.86;101960.75;5029649;28;20074;-71
2022/05/18 08:21:59;;;;;;;16.88;5.35;;;;;;;25.54;44.19;101968.09;5024884;28;20117;-70
2022/05/18 08:24:26;;;;;;;20.48;5.40;;;;;;;25.59;44.21;101973.16;5035012;28;20092;-70
2022/05/18 08:26:56;;;;;;;10.27;5.80;;;;;;;25.70;42.84;101975.03;5029831;28;20491;-69
2022/05/18 08:29:23;;;;;;;27.65;5.95;;;;;;;25.73;43.48;101977.50;5014102;28;20047;-70
2022/05/18 08:31:50;;;;;;;10.75;5.40;;;;;;;25.91;43.52;101982.44;5015500;28;20619;-70
2022/05/18 08:34:19;;;;;;;9.27;5.72;;;;;;;26.05;42.66;101983.09;5022826;28;20046;-70
2022/05/18 08:36:48;;;;;;;8.80;5.65;;;;;;;26.09;42.96;101985.56;5020526;28;20053;-69
2022/05/18 08:39:15;;;;;;;12.77;6.05;;;;;;;26.24;42.78;101986.22;5025081;28;20062;-69
2022/05/18 08:41:47;;;;;;;11.20;5.80;;;;;;;26.37;43.04;101980.69;5032612;28;20074;-68
2022/05/18 08:44:27;;;;;;;9.68;5.57;;;;;;;26.28;43.26;101982.28;5014899;28;20057;-68
2022/05/18 08:47:27;;;;;;;15.57;6.60;;;;;;;26.05;44.10;101974.97;5023948;28;20039;-69
2022/05/18 08:50:02;;;;;;;14.85;6.38;;;;;;;26.04;44.05;101969.72;5025018;28;20097;-69
2022/05/18 08:52:54;;;;;;;12.40;7.00;;;;;;;26.03;44.45;101974.25;5030360;28;20113;-68
2022/05/18 08:55:49;;;;;;;26.63;7.00;;;;;;;26.34;44.18;101973.69;5018902;28;20038;-67
2022/05/18 08:58:29;;;;;;;11.85;6.03;;;;;;;26.29;43.73;101971.34;5038890;28;20065;-68
2022/05/18 09:01:03;;;;;;;8.63;6.22;;;;;;;26.30;43.76;101967.66;5035506;28;20487;-68
2022/05/18 09:03:44;;;;;;;12.95;6.25;;;;;;;26.62;42.94;101980.41;5024772;28;20034;-68
2022/05/18 09:06:31;;;;;;;22.35;7.15;;;;;;;26.62;42.04;101976.88;5015351;28;20073;-69
2022/05/18 09:12:03;;;;;;;10.52;6.80;;;;;;;26.89;41.88;101981.03;5028392;28;20062;-68
2022/05/18 09:14:38;;;;;;;11.73;6.40;;;;;;;27.03;41.60;101980.75;5013490;28;20046;-68
2022/05/18 09:17:40;;;;;;;13.13;6.43;;;;;;;27.17;41.38;101979.59;5017393;28;20042;-68
2022/05/18 09:20:21;;;;;;;12.75;6.05;;;;;;;27.25;41.42;101971.69;5013919;28;20054;-68
2022/05/18 09:22:51;;;;;;;14.13;6.78;;;;;;;27.37;41.39;101977.06;5016267;28;20104;-67
2022/05/18 09:25:42;;;;;;;11.02;5.95;;;;;;;27.51;40.31;101975.94;5016801;28;20074;-68
2022/05/18 09:28:15;;;;;;;12.38;5.97;;;;;;;27.53;40.29;101977.50;5019740;28;20643;-68
2022/05/18 09:31:25;;;;;;;9.65;6.50;;;;;;;27.56;40.20;101963.72;5028686;28;20045;-69
2022/05/18 09:34:08;;;;;;;14.50;6.68;;;;;;;27.54;40.32;101970.25;5021332;28;20038;-68
2022/05/18 09:36:50;;;;;;;14.45;7.00;;;;;;;27.64;40.76;101971.19;5022837;28;20053;-68
2022/05/18 09:39:25;;;;;;;27.45;8.23;;;;;;;27.80;40.04;101970.72;5027169;28;20516;-68
2022/05/18 09:42:07;;;;;;;13.55;7.35;;;;;;;27.84;39.16;101972.16;5013442;28;20567;-68
2022/05/18 09:45:04;;;;;;;10.23;5.40;;;;;;;27.84;39.55;101969.44;5019880;28;20051;-68
2022/05/18 09:47:43;;;;;;;7.57;4.72;;;;;;;27.99;39.94;101964.53;5012631;28;20073;-68
2022/05/18 09:50:11;;;;;;;14.65;5.60;;;;;;;28.13;39.07;101971.50;5017088;28;20137;-68
2022/05/18 09:52:42;;;;;;;14.02;5.38;;;;;;;28.24;38.59;101961.56;5014955;28;21457;-69
2022/05/18 09:55:17;;;;;;;16.40;6.78;;;;;;;28.29;38.73;101978.28;5015383;28;20092;-70
2022/05/18 09:57:59;;;;;;;16.67;5.38;;;;;;;28.34;39.42;101963.34;5023469;28;20128;-70
2022/05/18 10:00:33;;;;;;;19.55;6.78;;;;;;;28.48;38.82;101961.25;5022056;28;20053;-70
2022/05/18 10:08:57;;;;;;;10.30;7.25;;;;;;;28.81;37.39;101970.06;5014699;28;20043;-71
2022/05/18 10:11:34;;;;;;;10.93;7.32;;;;;;;28.81;37.88;101973.66;5019266;28;20038;-70
2022/05/18 10:14:06;;;;;;;15.70;6.72;;;;;;;28.84;38.09;101960.81;5024660;28;20037;-69
2022/05/18 10:16:59;;;;;;;12.97;6.47;;;;;;;28.80;37.99;101962.91;5013148;28;20042;-69
2022/05/18 10:19:45;;;;;;;15.95;6.93;;;;;;;28.89;37.68;101967.53;5012834;28;20058;-70
2022/05/18 10:22:21;;;;;;;10.82;5.80;;;;;;;29.12;37.79;101972.69;5012217;28;20491;-70
2022/05/18 10:25:05;;;;;;;17.77;6.28;;;;;;;29.28;37.53;101966.69;5021066;28;20117;-70
2022/05/18 10:27:41;;;;;;;10.57;5.20;;;;;;;29.33;36.76;101963.56;5019133;28;20046;-70
2022/05/18 10:30:32;;;;;;;9.25;5.88;;;;;;;29.23;36.58;101961.69;5016188;28;20104;-69
2022/05/18 10:33:18;;;;;;;8.95;5.82;;;;;;;29.12;37.09;101959.97;5012493;28;20112;-69
2022/05/18 10:35:54;;;;;;;16.95;4.95;;;;;;;29.33;37.70;101956.31;5017788;28;20039;-69
2022/05/18 10:38:30;;;;;;;15.98;5.80;;;;;;;29.60;36.86;101954.69;5023813;28;20560;-69
2022/05/18 10:41:03;;;;;;;8.32;5.15;;;;;;;29.83;36.27;101955.22;5020232;28;20093;-70
2022/05/18 10:43:30;;;;;;;17.23;6.15;;;;;;;30.09;36.19;101957.31;5019114;28;20042;-69
2022/05/18 10:46:39;;;;;;;24.90;5.30;;;;;;;30.43;35.87;101950.44;5015832;28;20475;-69
2022/05/18 10:49:30;;;;;;;12.43;6.00;;;;;;;30.71;35.57;101948.59;5019777;28;20054;-69
2022/05/18 10:52:30;;;;;;;15.13;6.38;;;;;;;31.03;34.33;101938.19;5012385;28;20073;-69
2022/05/18 10:54:59;;;;;;;8.73;5.35;;;;;;;31.26;34.78;101938.59;5021916;28;20684;-69
2022/05/18 10:57:38;;;;;;;13.00;5.88;;;;;;;31.25;34.02;101931.44;5021280;28;20046;-69
2022/05/18 11:00:20;;;;;;;9.70;5.15;;;;;;;31.21;34.12;101928.19;5015315;28;20038;-69
2022/05/18 11:02:59;;;;;;;8.30;5.68;;;;;;;31.02;33.92;101918.31;5019093;28;20053;-69
2022/05/18 11:05:48;;;;;;;8.35;5.20;;;;;;;31.08;34.54;101925.84;5021287;28;20531;-69
2022/05/18 11:08:21;;;;;;;9.77;5.65;;;;;;;30.71;35.03;101925.97;5011534;28;20050;-70
2022/05/18 11:11:02;;;;;;;10.80;5.18;;;;;;;30.86;34.01;101931.72;5023086;28;20077;-70
2022/05/18 11:14:09;;;;;;;6.95;3.45;;;;;;;30.95;34.53;101919.91;5017733;28;20026;-70
2022/05/18 11:17:01;;;;;;;12.93;3.90;;;;;;;31.58;33.40;101920.81;5012183;28;20133;-70
2022/05/18 11:19:51;;;;;;;12.02;3.80;;;;;;;32.00;33.49;101922.81;5014181;28;20126;-70
2022/05/18 11:22:51;;;;;;;11.73;4.05;;;;;;;31.82;32.30;101927.47;5011750;28;20054;-71
2022/05/18 11:25:33;;;;;;;8.57;4.03;;;;;;;31.37;32.62;101916.56;5020973;28;20094;-70
2022/05/18 11:28:42;;;;;;;5.90;4.38;;;;;;;31.12;33.39;101920.97;5016206;28;20074;-69
2022/05/18 11:31:53;;;;;;;10.38;4.50;;;;;;;30.75;33.94;101916.50;5035864;28;20050;-69
2022/05/18 11:34:44;;;;;;;6.30;3.65;;;;;;;30.79;34.28;101923.31;5035067;28;20124;-70
2022/05/18 11:37:48;;;;;;;6.53;3.65;;;;;;;30.76;34.28;101924.50;5037614;28;20571;-70
2022/05/18 11:40:53;;;;;;;8.65;4.00;;;;;;;31.13;34.54;101914.50;5037873;28;20137;-70
2022/05/18 11:43:29;;;;;;;;;;;;;;;31.13;33.60;101923.50;5030345;28;20093;-70
2022/05/18 11:46:39;;;;;;;10.27;4.88;;;;;;;30.73;34.00;101919.34;5023478;28;19925;-69
2022/05/18 11:50:07;;;;;;;11.00;3.88;;;;;;;30.83;34.84;101917.41;5034927;28;20189;-70
2022/05/18 11:52:46;;;;;;;8.60;3.50;;;;;;;31.22;35.12;101904.53;5036425;28;20057;-69
2022/05/18 11:55:56;;;;;;;22.33;4.60;;;;;;;31.48;33.59;101903.72;5028518;28;20093;-70
2022/05/18 11:59:17;;;;;;;8.35;3.70;;;;;;;31.67;32.76;101905.38;5023146;28;20043;-70
2022/05/18 12:01:46;;;;;;;8.70;3.88;;;;;;;31.83;32.84;101902.78;5017338;28;20038;-70
2022/05/18 12:05:07;;;;;;;11.48;4.25;;;;;;;31.95;32.17;101899.75;5020821;28;20046;-70
2022/05/18 12:08:27;;;;;;;13.75;3.42;;;;;;;32.08;31.64;101893.84;5022411;28;20535;-71
2022/05/18 12:11:23;;;;;;;30.30;4.78;;;;;;;31.85;32.40;101892.56;5035703;28;20045;-70
2022/05/18 12:15:00;;;;;;;8.85;3.35;;;;;;;32.08;31.96;101893.84;5029876;28;20117;-71
2022/05/18 12:17:46;;;;;;;6.50;3.25;;;;;;;32.35;31.09;101890.06;5015072;28;20552;-70
2022/05/18 12:20:28;;;;;;;8.73;3.50;;;;;;;32.41;31.89;101889.41;5037578;28;20109;-70